Birobidzhan, Russia
Current Conditions -  °F | °C
As of 2:30 PM on Thursday 23 Oct 2014 (Local Time) from UHHH Reporting Station
Scattered Clouds Scattered Clouds  
Wind Chill: 54°   Ceiling: Unl
Heat Index: 54°   Visibility: 4mi
Dew Point: 16°   Wind: 11mph
Humidity: 22%   Direction: 210°SSW
Pressure: 29.74"   Gusts: 20mph
Location:  48.8°N, 132.95°E
Report Text: UHHH 230630Z 21005G09MPS 180V240 6000 SCT200 12/M09 Q1007 NOSIGRMK QFE749/0998 23090060
Loading
Personal Weather Stations






























Interactive Weather Map
Tropical Storm Tracking
New forecast layout! Learn more

10-Day Weather Forecast

Advertisements
Track Severe Weather on mobile